sensor_id;sensor_type;location;lat;lon;timestamp;pressure;altitude;pressure_sealevel;temperature;humidity
52935;BME280;38802;50.198;19.796;2023-03-26T00:01:16;95207.66;;;5.69;77.04
52935;BME280;38802;50.198;19.796;2023-03-26T00:03:43;95207.48;;;5.69;77.00
52935;BME280;38802;50.198;19.796;2023-03-26T00:06:14;95203.82;;;5.72;76.96
52935;BME280;38802;50.198;19.796;2023-03-26T00:08:43;95205.40;;;5.71;76.89
52935;BME280;38802;50.198;19.796;2023-03-26T00:11:15;95205.27;;;5.71;76.85
52935;BME280;38802;50.198;19.796;2023-03-26T00:13:42;95201.28;;;5.73;76.93
52935;BME280;38802;50.198;19.796;2023-03-26T00:16:10;95201.11;;;5.75;77.01
52935;BME280;38802;50.198;19.796;2023-03-26T00:18:37;95198.65;;;5.74;76.89
52935;BME280;38802;50.198;19.796;2023-03-26T00:21:06;95200.29;;;5.75;76.96
52935;BME280;38802;50.198;19.796;2023-03-26T00:23:34;95203.80;;;5.76;76.97
52935;BME280;38802;50.198;19.796;2023-03-26T00:26:02;95202.65;;;5.78;77.05
52935;BME280;38802;50.198;19.796;2023-03-26T00:28:30;95208.41;;;5.79;77.14
52935;BME280;38802;50.198;19.796;2023-03-26T00:31:01;95202.34;;;5.79;77.05
52935;BME280;38802;50.198;19.796;2023-03-26T00:33:28;95206.20;;;5.81;77.21
52935;BME280;38802;50.198;19.796;2023-03-26T00:35:58;95200.46;;;5.79;77.16
52935;BME280;38802;50.198;19.796;2023-03-26T00:38:29;95193.70;;;5.79;77.18
52935;BME280;38802;50.198;19.796;2023-03-26T00:40:59;95194.30;;;5.79;77.05
52935;BME280;38802;50.198;19.796;2023-03-26T00:43:34;95189.48;;;5.80;77.29
52935;BME280;38802;50.198;19.796;2023-03-26T00:46:02;95188.29;;;5.81;77.09
52935;BME280;38802;50.198;19.796;2023-03-26T00:48:29;95191.20;;;5.79;77.21
52935;BME280;38802;50.198;19.796;2023-03-26T00:51:16;95187.64;;;5.76;77.23
52935;BME280;38802;50.198;19.796;2023-03-26T00:53:44;95189.55;;;5.76;77.16
52935;BME280;38802;50.198;19.796;2023-03-26T00:56:12;95186.11;;;5.76;77.27
52935;BME280;38802;50.198;19.796;2023-03-26T00:58:40;95187.20;;;5.75;77.26
52935;BME280;38802;50.198;19.796;2023-03-26T01:01:13;95190.08;;;5.77;77.36
52935;BME280;38802;50.198;19.796;2023-03-26T01:03:41;95193.56;;;5.75;77.48
52935;BME280;38802;50.198;19.796;2023-03-26T01:06:25;95192.08;;;5.72;77.72
52935;BME280;38802;50.198;19.796;2023-03-26T01:08:54;95195.20;;;5.70;77.61
52935;BME280;38802;50.198;19.796;2023-03-26T01:11:29;95188.10;;;5.72;77.83
52935;BME280;38802;50.198;19.796;2023-03-26T01:13:59;95190.88;;;5.72;77.77
52935;BME280;38802;50.198;19.796;2023-03-26T01:16:37;95185.29;;;5.75;78.08
52935;BME280;38802;50.198;19.796;2023-03-26T01:19:08;95185.48;;;5.73;77.92
52935;BME280;38802;50.198;19.796;2023-03-26T01:21:38;95179.16;;;5.74;78.13
52935;BME280;38802;50.198;19.796;2023-03-26T01:24:08;95176.72;;;5.74;77.98
52935;BME280;38802;50.198;19.796;2023-03-26T01:26:50;95179.61;;;5.75;78.00
52935;BME280;38802;50.198;19.796;2023-03-26T01:29:28;95182.80;;;5.76;78.09
52935;BME280;38802;50.198;19.796;2023-03-26T01:39:42;95183.42;;;5.44;79.51
52935;BME280;38802;50.198;19.796;2023-03-26T01:44:58;95176.01;;;5.33;80.57
52935;BME280;38802;50.198;19.796;2023-03-26T01:47:27;95183.48;;;5.30;81.32
52935;BME280;38802;50.198;19.796;2023-03-26T01:49:55;95175.89;;;5.21;81.18
52935;BME280;38802;50.198;19.796;2023-03-26T01:52:22;95169.65;;;5.18;81.48
52935;BME280;38802;50.198;19.796;2023-03-26T01:54:53;95160.97;;;5.12;81.71
52935;BME280;38802;50.198;19.796;2023-03-26T02:03:14;95159.58;;;4.94;81.56
52935;BME280;38802;50.198;19.796;2023-03-26T02:05:53;95160.05;;;4.88;81.42
52935;BME280;38802;50.198;19.796;2023-03-26T02:08:37;95164.11;;;4.87;81.32
52935;BME280;38802;50.198;19.796;2023-03-26T02:11:08;95163.57;;;4.87;81.65
52935;BME280;38802;50.198;19.796;2023-03-26T02:13:41;95160.85;;;4.87;81.51
52935;BME280;38802;50.198;19.796;2023-03-26T02:16:10;95162.98;;;4.88;81.81
52935;BME280;38802;50.198;19.796;2023-03-26T02:18:39;95159.94;;;4.92;82.08
52935;BME280;38802;50.198;19.796;2023-03-26T02:21:15;95158.36;;;4.92;82.08
52935;BME280;38802;50.198;19.796;2023-03-26T02:23:51;95159.89;;;4.93;81.84
52935;BME280;38802;50.198;19.796;2023-03-26T02:26:23;95161.52;;;4.96;82.06
52935;BME280;38802;50.198;19.796;2023-03-26T02:29:03;95160.93;;;4.99;81.87
52935;BME280;38802;50.198;19.796;2023-03-26T02:31:30;95160.77;;;5.03;82.10
52935;BME280;38802;50.198;19.796;2023-03-26T02:33:57;95164.39;;;5.08;82.40
52935;BME280;38802;50.198;19.796;2023-03-26T02:36:25;95161.23;;;5.11;82.70
52935;BME280;38802;50.198;19.796;2023-03-26T02:38:57;95161.27;;;5.10;82.37
52935;BME280;38802;50.198;19.796;2023-03-26T02:41:26;95162.64;;;5.14;82.51
52935;BME280;38802;50.198;19.796;2023-03-26T02:43:56;95160.65;;;5.18;82.79
52935;BME280;38802;50.198;19.796;2023-03-26T02:46:33;95155.77;;;5.21;82.95
52935;BME280;38802;50.198;19.796;2023-03-26T02:49:21;95157.42;;;5.17;82.73
52935;BME280;38802;50.198;19.796;2023-03-26T02:51:47;95155.20;;;5.17;82.53
52935;BME280;38802;50.198;19.796;2023-03-26T02:54:24;95154.08;;;5.21;82.68
52935;BME280;38802;50.198;19.796;2023-03-26T02:57:11;95154.42;;;5.23;82.66
52935;BME280;38802;50.198;19.796;2023-03-26T03:00:17;95154.48;;;5.20;82.44
52935;BME280;38802;50.198;19.796;2023-03-26T03:02:48;95151.60;;;5.22;82.64
52935;BME280;38802;50.198;19.796;2023-03-26T03:05:31;95149.98;;;5.25;82.68
52935;BME280;38802;50.198;19.796;2023-03-26T03:08:10;95148.02;;;5.23;82.59
52935;BME280;38802;50.198;19.796;2023-03-26T03:10:41;95150.54;;;5.26;82.56
52935;BME280;38802;50.198;19.796;2023-03-26T03:13:16;95148.98;;;5.29;82.79
52935;BME280;38802;50.198;19.796;2023-03-26T03:15:43;95150.38;;;5.28;82.43
52935;BME280;38802;50.198;19.796;2023-03-26T03:18:10;95147.97;;;5.30;82.61
52935;BME280;38802;50.198;19.796;2023-03-26T03:20:36;95152.95;;;5.27;82.41
52935;BME280;38802;50.198;19.796;2023-03-26T03:23:03;95152.23;;;5.29;82.50
52935;BME280;38802;50.198;19.796;2023-03-26T03:25:31;95160.02;;;5.31;82.45
52935;BME280;38802;50.198;19.796;2023-03-26T03:27:59;95157.50;;;5.32;82.32
52935;BME280;38802;50.198;19.796;2023-03-26T03:30:26;95154.78;;;5.31;82.30
52935;BME280;38802;50.198;19.796;2023-03-26T03:33:15;95151.80;;;5.30;82.24
52935;BME280;38802;50.198;19.796;2023-03-26T03:35:45;95156.56;;;5.31;82.10
52935;BME280;38802;50.198;19.796;2023-03-26T03:38:14;95156.69;;;5.31;82.17
52935;BME280;38802;50.198;19.796;2023-03-26T03:40:46;95157.84;;;5.32;82.27
52935;BME280;38802;50.198;19.796;2023-03-26T03:43:13;95159.05;;;5.30;82.32
52935;BME280;38802;50.198;19.796;2023-03-26T03:45:49;95150.80;;;5.27;82.44
52935;BME280;38802;50.198;19.796;2023-03-26T03:48:37;95145.68;;;5.27;82.29
52935;BME280;38802;50.198;19.796;2023-03-26T03:51:05;95142.59;;;5.27;82.73
52935;BME280;38802;50.198;19.796;2023-03-26T03:53:46;95138.91;;;5.23;82.76
52935;BME280;38802;50.198;19.796;2023-03-26T03:56:14;95143.48;;;5.20;82.65
52935;BME280;38802;50.198;19.796;2023-03-26T03:59:04;95146.10;;;5.15;82.75
52935;BME280;38802;50.198;19.796;2023-03-26T04:01:33;95160.33;;;5.14;82.89
52935;BME280;38802;50.198;19.796;2023-03-26T04:04:06;95161.08;;;5.13;83.13
52935;BME280;38802;50.198;19.796;2023-03-26T04:06:51;95159.39;;;5.10;83.05
52935;BME280;38802;50.198;19.796;2023-03-26T04:09:19;95152.74;;;5.09;83.23
52935;BME280;38802;50.198;19.796;2023-03-26T04:11:46;95147.80;;;5.06;83.42
52935;BME280;38802;50.198;19.796;2023-03-26T04:14:39;95151.59;;;4.99;83.16
52935;BME280;38802;50.198;19.796;2023-03-26T04:17:24;95151.01;;;4.98;83.06
52935;BME280;38802;50.198;19.796;2023-03-26T04:19:54;95148.16;;;4.97;83.14
52935;BME280;38802;50.198;19.796;2023-03-26T04:22:21;95145.39;;;5.00;83.56
52935;BME280;38802;50.198;19.796;2023-03-26T04:24:55;95142.37;;;4.97;83.30
52935;BME280;38802;50.198;19.796;2023-03-26T04:27:30;95140.73;;;4.98;83.42
52935;BME280;38802;50.198;19.796;2023-03-26T04:30:21;95138.16;;;5.02;83.53
52935;BME280;38802;50.198;19.796;2023-03-26T04:32:57;95134.80;;;5.03;83.32
52935;BME280;38802;50.198;19.796;2023-03-26T04:35:32;95129.00;;;5.07;83.44
52935;BME280;38802;50.198;19.796;2023-03-26T04:38:03;95129.41;;;5.08;83.30
52935;BME280;38802;50.198;19.796;2023-03-26T04:40:38;95127.14;;;5.09;83.26
52935;BME280;38802;50.198;19.796;2023-03-26T04:43:31;95125.85;;;5.12;83.17
52935;BME280;38802;50.198;19.796;2023-03-26T04:46:21;95122.95;;;5.16;83.02
52935;BME280;38802;50.198;19.796;2023-03-26T04:48:54;95123.30;;;5.11;82.97
52935;BME280;38802;50.198;19.796;2023-03-26T04:51:25;95121.55;;;5.12;83.10
52935;BME280;38802;50.198;19.796;2023-03-26T04:53:55;95123.62;;;5.10;82.84
52935;BME280;38802;50.198;19.796;2023-03-26T04:56:43;95121.79;;;5.09;82.98
52935;BME280;38802;50.198;19.796;2023-03-26T04:59:33;95121.63;;;5.06;82.82
52935;BME280;38802;50.198;19.796;2023-03-26T05:02:04;95128.67;;;5.07;82.79
52935;BME280;38802;50.198;19.796;2023-03-26T05:04:36;95124.02;;;5.09;82.88
52935;BME280;38802;50.198;19.796;2023-03-26T05:07:08;95127.23;;;5.12;82.79
52935;BME280;38802;50.198;19.796;2023-03-26T05:09:41;95129.41;;;5.15;82.72
52935;BME280;38802;50.198;19.796;2023-03-26T05:12:15;95125.95;;;5.19;82.70
52935;BME280;38802;50.198;19.796;2023-03-26T05:14:50;95127.27;;;5.22;82.70
52935;BME280;38802;50.198;19.796;2023-03-26T05:17:23;95124.55;;;5.26;82.67
52935;BME280;38802;50.198;19.796;2023-03-26T05:19:50;95123.15;;;5.31;82.60
52935;BME280;38802;50.198;19.796;2023-03-26T05:22:19;95125.11;;;5.34;82.63
52935;BME280;38802;50.198;19.796;2023-03-26T05:25:07;95124.76;;;5.37;82.50
52935;BME280;38802;50.198;19.796;2023-03-26T05:27:34;95122.02;;;5.39;82.38
52935;BME280;38802;50.198;19.796;2023-03-26T05:30:02;95129.10;;;5.43;82.38
52935;BME280;38802;50.198;19.796;2023-03-26T05:32:31;95129.31;;;5.44;82.28
52935;BME280;38802;50.198;19.796;2023-03-26T05:34:58;95126.32;;;5.45;82.27
52935;BME280;38802;50.198;19.796;2023-03-26T05:37:27;95123.05;;;5.47;82.20
52935;BME280;38802;50.198;19.796;2023-03-26T05:40:02;95122.02;;;5.47;82.09
52935;BME280;38802;50.198;19.796;2023-03-26T05:42:40;95122.91;;;5.47;82.01
52935;BME280;38802;50.198;19.796;2023-03-26T05:45:25;95121.40;;;5.51;81.96
52935;BME280;38802;50.198;19.796;2023-03-26T05:47:52;95124.05;;;5.56;81.70
52935;BME280;38802;50.198;19.796;2023-03-26T05:50:22;95114.19;;;5.68;81.65
52935;BME280;38802;50.198;19.796;2023-03-26T05:52:49;95116.17;;;5.77;81.48
52935;BME280;38802;50.198;19.796;2023-03-26T05:55:43;95119.73;;;5.82;81.32
52935;BME280;38802;50.198;19.796;2023-03-26T05:58:31;95119.13;;;5.87;81.25
52935;BME280;38802;50.198;19.796;2023-03-26T06:01:17;95121.48;;;5.92;80.98
52935;BME280;38802;50.198;19.796;2023-03-26T06:04:17;95116.66;;;5.96;80.76
52935;BME280;38802;50.198;19.796;2023-03-26T06:06:49;95121.33;;;6.03;80.39
52935;BME280;38802;50.198;19.796;2023-03-26T06:09:18;95127.05;;;6.05;80.41
52935;BME280;38802;50.198;19.796;2023-03-26T06:11:44;95128.34;;;6.12;80.11
52935;BME280;38802;50.198;19.796;2023-03-26T06:14:11;95125.87;;;6.13;79.96
52935;BME280;38802;50.198;19.796;2023-03-26T06:16:45;95126.62;;;6.21;79.65
52935;BME280;38802;50.198;19.796;2023-03-26T06:19:19;95123.64;;;6.42;79.63
52935;BME280;38802;50.198;19.796;2023-03-26T06:21:53;95126.25;;;6.64;79.27
52935;BME280;38802;50.198;19.796;2023-03-26T06:24:24;95120.55;;;6.77;78.74
52935;BME280;38802;50.198;19.796;2023-03-26T06:27:19;95124.66;;;6.83;78.27
52935;BME280;38802;50.198;19.796;2023-03-26T06:30:21;95130.04;;;6.86;78.01
52935;BME280;38802;50.198;19.796;2023-03-26T06:33:15;95129.02;;;6.84;77.52
52935;BME280;38802;50.198;19.796;2023-03-26T06:35:46;95135.07;;;6.82;77.73
52935;BME280;38802;50.198;19.796;2023-03-26T06:38:14;95139.38;;;6.82;77.56
52935;BME280;38802;50.198;19.796;2023-03-26T06:40:43;95136.05;;;6.81;77.57
52935;BME280;38802;50.198;19.796;2023-03-26T06:43:26;95134.46;;;6.79;77.35
52935;BME280;38802;50.198;19.796;2023-03-26T06:46:11;95132.87;;;6.78;76.87
52935;BME280;38802;50.198;19.796;2023-03-26T06:48:57;95130.08;;;6.74;76.84
52935;BME280;38802;50.198;19.796;2023-03-26T06:51:50;95134.51;;;6.71;76.86
52935;BME280;38802;50.198;19.796;2023-03-26T06:54:46;95130.49;;;6.77;76.90
52935;BME280;38802;50.198;19.796;2023-03-26T06:57:33;95130.21;;;6.91;76.99
52935;BME280;38802;50.198;19.796;2023-03-26T07:00:32;95131.19;;;7.13;77.04
52935;BME280;38802;50.198;19.796;2023-03-26T07:03:18;95128.27;;;7.41;76.43
52935;BME280;38802;50.198;19.796;2023-03-26T07:06:14;95129.36;;;7.64;75.90
52935;BME280;38802;50.198;19.796;2023-03-26T07:08:59;95123.84;;;7.83;75.20
52935;BME280;38802;50.198;19.796;2023-03-26T07:11:45;95125.97;;;8.04;74.42
52935;BME280;38802;50.198;19.796;2023-03-26T07:14:30;95123.55;;;8.13;73.87
52935;BME280;38802;50.198;19.796;2023-03-26T07:17:06;95119.98;;;8.03;73.12
52935;BME280;38802;50.198;19.796;2023-03-26T07:20:06;95121.55;;;7.90;72.96
52935;BME280;38802;50.198;19.796;2023-03-26T07:22:34;95122.76;;;7.97;72.80
52935;BME280;38802;50.198;19.796;2023-03-26T07:25:24;95122.66;;;8.08;71.97
52935;BME280;38802;50.198;19.796;2023-03-26T07:31:09;95122.16;;;8.35;72.09
52935;BME280;38802;50.198;19.796;2023-03-26T07:37:32;95116.54;;;8.88;71.84
52935;BME280;38802;50.198;19.796;2023-03-26T07:46:31;95113.36;;;8.78;70.13
52935;BME280;38802;50.198;19.796;2023-03-26T07:49:21;95107.63;;;8.74;70.34
52935;BME280;38802;50.198;19.796;2023-03-26T07:52:09;95107.98;;;8.82;70.37
52935;BME280;38802;50.198;19.796;2023-03-26T07:54:55;95107.15;;;8.96;69.47
52935;BME280;38802;50.198;19.796;2023-03-26T08:01:12;95110.50;;;8.99;69.88
52935;BME280;38802;50.198;19.796;2023-03-26T08:07:26;95105.36;;;9.19;68.85
52935;BME280;38802;50.198;19.796;2023-03-26T08:10:25;95107.40;;;9.21;67.89
52935;BME280;38802;50.198;19.796;2023-03-26T08:13:18;95112.80;;;9.28;67.56
52935;BME280;38802;50.198;19.796;2023-03-26T08:15:58;95110.18;;;9.32;67.19
52935;BME280;38802;50.198;19.796;2023-03-26T08:18:39;95110.91;;;9.24;66.48
52935;BME280;38802;50.198;19.796;2023-03-26T08:21:14;95106.67;;;9.12;66.49
52935;BME280;38802;50.198;19.796;2023-03-26T08:31:47;95101.48;;;9.29;67.10
52935;BME280;38802;50.198;19.796;2023-03-26T08:34:15;95095.19;;;9.31;66.32
52935;BME280;38802;50.198;19.796;2023-03-26T08:36:41;95093.52;;;9.34;66.10
52935;BME280;38802;50.198;19.796;2023-03-26T08:39:08;95094.40;;;9.36;65.29
52935;BME280;38802;50.198;19.796;2023-03-26T08:56:19;95078.94;;;9.72;64.34
52935;BME280;38802;50.198;19.796;2023-03-26T09:02:09;95072.80;;;9.65;63.46
52935;BME280;38802;50.198;19.796;2023-03-26T09:05:01;95077.73;;;9.72;62.59
52935;BME280;38802;50.198;19.796;2023-03-26T09:14:13;95076.16;;;9.70;61.70
52935;BME280;38802;50.198;19.796;2023-03-26T09:22:16;95077.73;;;9.81;61.24
52935;BME280;38802;50.198;19.796;2023-03-26T09:25:11;95074.62;;;9.89;61.45
52935;BME280;38802;50.198;19.796;2023-03-26T09:36:17;95078.65;;;9.80;60.32
52935;BME280;38802;50.198;19.796;2023-03-26T09:38:51;95081.70;;;9.79;59.95
52935;BME280;38802;50.198;19.796;2023-03-26T10:09:16;95062.42;;;9.65;60.75
52935;BME280;38802;50.198;19.796;2023-03-26T10:12:04;95062.73;;;9.82;60.89
52935;BME280;38802;50.198;19.796;2023-03-26T10:14:58;95057.19;;;9.99;60.33
52935;BME280;38802;50.198;19.796;2023-03-26T10:20:20;95062.09;;;10.15;60.22
52935;BME280;38802;50.198;19.796;2023-03-26T10:23:31;95058.74;;;10.20;60.12
52935;BME280;38802;50.198;19.796;2023-03-26T10:29:24;95051.95;;;10.38;59.54
52935;BME280;38802;50.198;19.796;2023-03-26T10:32:04;95050.60;;;10.43;59.62
52935;BME280;38802;50.198;19.796;2023-03-26T10:34:48;95052.39;;;10.44;59.75
52935;BME280;38802;50.198;19.796;2023-03-26T10:51:53;95036.95;;;10.82;59.72
52935;BME280;38802;50.198;19.796;2023-03-26T10:54:44;95038.83;;;10.65;59.28
52935;BME280;38802;50.198;19.796;2023-03-26T11:00:20;95033.80;;;10.56;59.79
52935;BME280;38802;50.198;19.796;2023-03-26T11:06:15;95027.91;;;10.80;59.82
52935;BME280;38802;50.198;19.796;2023-03-26T11:08:56;95030.45;;;10.84;59.11
52935;BME280;38802;50.198;19.796;2023-03-26T11:11:50;95029.33;;;10.75;58.84
52935;BME280;38802;50.198;19.796;2023-03-26T11:14:25;95031.53;;;10.56;59.13
52935;BME280;38802;50.198;19.796;2023-03-26T11:33:46;95053.19;;;9.76;60.34
52935;BME280;38802;50.198;19.796;2023-03-26T11:36:18;95054.04;;;9.59;60.80
52935;BME280;38802;50.198;19.796;2023-03-26T11:38:49;95063.59;;;9.39;61.68
52935;BME280;38802;50.198;19.796;2023-03-26T11:41:28;95068.85;;;9.14;62.07
52935;BME280;38802;50.198;19.796;2023-03-26T11:44:23;95069.50;;;8.99;62.81
52935;BME280;38802;50.198;19.796;2023-03-26T11:46:56;95062.55;;;8.90;63.37
52935;BME280;38802;50.198;19.796;2023-03-26T11:49:27;95058.50;;;8.90;63.94
52935;BME280;38802;50.198;19.796;2023-03-26T11:51:54;95050.58;;;8.97;65.29
52935;BME280;38802;50.198;19.796;2023-03-26T11:54:22;95044.09;;;9.03;65.28
52935;BME280;38802;50.198;19.796;2023-03-26T12:00:05;95041.05;;;9.14;65.34
52935;BME280;38802;50.198;19.796;2023-03-26T12:02:45;95030.95;;;9.18;65.67
52935;BME280;38802;50.198;19.796;2023-03-26T12:07:48;95023.41;;;9.17;66.25
52935;BME280;38802;50.198;19.796;2023-03-26T12:10:27;95020.79;;;9.26;66.36
52935;BME280;38802;50.198;19.796;2023-03-26T12:12:58;95020.20;;;9.50;66.95
52935;BME280;38802;50.198;19.796;2023-03-26T12:15:27;95016.84;;;9.60;66.95
52935;BME280;38802;50.198;19.796;2023-03-26T12:17:55;95011.53;;;9.64;66.98
52935;BME280;38802;50.198;19.796;2023-03-26T12:22:53;95014.02;;;9.59;66.73
52935;BME280;38802;50.198;19.796;2023-03-26T12:25:28;95017.49;;;9.55;66.80
52935;BME280;38802;50.198;19.796;2023-03-26T12:28:04;95015.90;;;9.49;66.79
52935;BME280;38802;50.198;19.796;2023-03-26T12:30:57;95014.85;;;9.41;66.66
52935;BME280;38802;50.198;19.796;2023-03-26T12:33:31;95016.14;;;9.35;67.03
52935;BME280;38802;50.198;19.796;2023-03-26T12:36:18;95006.98;;;9.29;67.32
52935;BME280;38802;50.198;19.796;2023-03-26T12:38:46;95000.07;;;9.17;68.10
52935;BME280;38802;50.198;19.796;2023-03-26T12:41:35;94993.64;;;9.13;68.82
52935;BME280;38802;50.198;19.796;2023-03-26T12:44:49;94986.45;;;9.23;69.53
52935;BME280;38802;50.198;19.796;2023-03-26T12:47:30;94978.41;;;9.29;69.95
52935;BME280;38802;50.198;19.796;2023-03-26T12:50:22;94975.02;;;9.33;70.14
52935;BME280;38802;50.198;19.796;2023-03-26T12:53:55;94971.81;;;9.40;70.07
52935;BME280;38802;50.198;19.796;2023-03-26T13:06:56;94951.89;;;10.06;69.07
52935;BME280;38802;50.198;19.796;2023-03-26T13:09:37;94946.61;;;10.17;67.76
52935;BME280;38802;50.198;19.796;2023-03-26T13:12:32;94942.66;;;10.16;66.22
52935;BME280;38802;50.198;19.796;2023-03-26T13:15:26;94941.25;;;10.10;65.56
52935;BME280;38802;50.198;19.796;2023-03-26T13:24:00;94928.36;;;10.39;65.21
52935;BME280;38802;50.198;19.796;2023-03-26T13:27:15;94923.33;;;10.70;64.32
52935;BME280;38802;50.198;19.796;2023-03-26T13:35:23;94910.30;;;11.21;62.76
52935;BME280;38802;50.198;19.796;2023-03-26T13:46:40;94907.10;;;11.35;58.07
52935;BME280;38802;50.198;19.796;2023-03-26T13:49:11;94909.09;;;11.18;58.69
52935;BME280;38802;50.198;19.796;2023-03-26T13:52:06;94903.52;;;11.07;58.25
52935;BME280;38802;50.198;19.796;2023-03-26T13:57:39;94899.14;;;11.03;58.94
52935;BME280;38802;50.198;19.796;2023-03-26T14:00:18;94895.88;;;11.16;58.89
52935;BME280;38802;50.198;19.796;2023-03-26T14:02:55;94897.61;;;11.31;58.42
52935;BME280;38802;50.198;19.796;2023-03-26T14:05:38;94892.91;;;11.46;58.11
52935;BME280;38802;50.198;19.796;2023-03-26T14:08:23;94894.52;;;11.60;58.39
52935;BME280;38802;50.198;19.796;2023-03-26T14:11:02;94895.23;;;11.66;57.87
52935;BME280;38802;50.198;19.796;2023-03-26T14:13:54;94894.18;;;11.66;57.80
52935;BME280;38802;50.198;19.796;2023-03-26T14:16:40;94898.95;;;11.65;57.70
52935;BME280;38802;50.198;19.796;2023-03-26T14:19:37;94905.77;;;11.65;56.50
52935;BME280;38802;50.198;19.796;2023-03-26T14:22:14;94908.36;;;11.48;56.17
52935;BME280;38802;50.198;19.796;2023-03-26T14:27:47;94907.66;;;11.37;54.80
52935;BME280;38802;50.198;19.796;2023-03-26T14:35:58;94905.94;;;10.90;53.76
52935;BME280;38802;50.198;19.796;2023-03-26T14:41:51;94905.46;;;10.75;54.60
52935;BME280;38802;50.198;19.796;2023-03-26T14:52:50;94900.92;;;10.71;54.98
52935;BME280;38802;50.198;19.796;2023-03-26T15:01:23;94898.94;;;10.57;55.57
52935;BME280;38802;50.198;19.796;2023-03-26T15:10:09;94889.62;;;10.52;56.24
52935;BME280;38802;50.198;19.796;2023-03-26T15:35:34;94869.56;;;10.39;55.76
52935;BME280;38802;50.198;19.796;2023-03-26T15:41:04;94865.79;;;10.38;55.83
52935;BME280;38802;50.198;19.796;2023-03-26T15:49:39;94866.84;;;10.33;56.10
52935;BME280;38802;50.198;19.796;2023-03-26T16:00:40;94860.02;;;10.17;55.80
52935;BME280;38802;50.198;19.796;2023-03-26T16:03:25;94854.81;;;10.17;56.21
52935;BME280;38802;50.198;19.796;2023-03-26T16:11:08;94855.17;;;10.27;56.41
52935;BME280;38802;50.198;19.796;2023-03-26T16:13:42;94853.48;;;10.30;56.35
52935;BME280;38802;50.198;19.796;2023-03-26T16:19:26;94851.19;;;10.32;55.79
52935;BME280;38802;50.198;19.796;2023-03-26T16:22:02;94845.54;;;10.26;55.65
52935;BME280;38802;50.198;19.796;2023-03-26T16:24:37;94846.92;;;10.21;55.89
52935;BME280;38802;50.198;19.796;2023-03-26T16:32:39;94847.50;;;10.09;55.91
52935;BME280;38802;50.198;19.796;2023-03-26T16:37:49;94847.27;;;10.04;56.31
52935;BME280;38802;50.198;19.796;2023-03-26T16:40:33;94850.92;;;10.01;56.12
52935;BME280;38802;50.198;19.796;2023-03-26T16:48:40;94848.43;;;9.89;56.59
52935;BME280;38802;50.198;19.796;2023-03-26T16:54:35;94843.14;;;9.90;56.58
52935;BME280;38802;50.198;19.796;2023-03-26T16:57:26;94841.59;;;9.87;56.77
52935;BME280;38802;50.198;19.796;2023-03-26T17:14:15;94830.08;;;10.02;57.33
52935;BME280;38802;50.198;19.796;2023-03-26T17:26:20;94837.86;;;9.94;57.38
52935;BME280;38802;50.198;19.796;2023-03-26T17:29:07;94841.95;;;9.87;57.49
52935;BME280;38802;50.198;19.796;2023-03-26T17:32:01;94843.45;;;9.82;57.46
52935;BME280;38802;50.198;19.796;2023-03-26T17:37:26;94845.05;;;9.73;57.67
52935;BME280;38802;50.198;19.796;2023-03-26T17:42:33;94841.98;;;9.62;57.63
52935;BME280;38802;50.198;19.796;2023-03-26T17:45:21;94841.44;;;9.56;57.65
52935;BME280;38802;50.198;19.796;2023-03-26T17:47:58;94842.57;;;9.51;57.55
52935;BME280;38802;50.198;19.796;2023-03-26T17:50:31;94841.58;;;9.45;57.71
52935;BME280;38802;50.198;19.796;2023-03-26T17:53:27;94844.36;;;9.37;57.82
52935;BME280;38802;50.198;19.796;2023-03-26T17:56:00;94842.39;;;9.29;58.05
52935;BME280;38802;50.198;19.796;2023-03-26T17:58:45;94843.23;;;9.24;58.04
52935;BME280;38802;50.198;19.796;2023-03-26T18:01:38;94844.67;;;9.20;58.31
52935;BME280;38802;50.198;19.796;2023-03-26T18:04:17;94847.42;;;9.17;58.30
52935;BME280;38802;50.198;19.796;2023-03-26T18:15:47;94843.92;;;8.92;58.60
52935;BME280;38802;50.198;19.796;2023-03-26T18:18:22;94845.50;;;8.83;58.61
52935;BME280;38802;50.198;19.796;2023-03-26T18:20:56;94840.96;;;8.73;58.67
52935;BME280;38802;50.198;19.796;2023-03-26T18:23:34;94837.78;;;8.64;58.68
52935;BME280;38802;50.198;19.796;2023-03-26T18:28:43;94834.59;;;8.60;58.93
52935;BME280;38802;50.198;19.796;2023-03-26T18:31:19;94831.95;;;8.55;58.91
52935;BME280;38802;50.198;19.796;2023-03-26T18:33:53;94828.20;;;8.53;59.09
52935;BME280;38802;50.198;19.796;2023-03-26T18:36:24;94826.80;;;8.49;59.21
52935;BME280;38802;50.198;19.796;2023-03-26T18:38:57;94824.88;;;8.49;59.29
52935;BME280;38802;50.198;19.796;2023-03-26T18:41:35;94827.00;;;8.50;59.29
52935;BME280;38802;50.198;19.796;2023-03-26T18:44:14;94833.23;;;8.49;59.31
52935;BME280;38802;50.198;19.796;2023-03-26T18:46:43;94833.09;;;8.45;59.38
52935;BME280;38802;50.198;19.796;2023-03-26T18:49:13;94830.92;;;8.42;59.54
52935;BME280;38802;50.198;19.796;2023-03-26T18:51:42;94825.41;;;8.37;59.39
52935;BME280;38802;50.198;19.796;2023-03-26T18:54:29;94823.98;;;8.30;59.47
52935;BME280;38802;50.198;19.796;2023-03-26T18:57:07;94828.36;;;8.29;59.65
52935;BME280;38802;50.198;19.796;2023-03-26T18:59:43;94831.19;;;8.30;59.73
52935;BME280;38802;50.198;19.796;2023-03-26T19:02:16;94831.64;;;8.26;59.80
52935;BME280;38802;50.198;19.796;2023-03-26T19:04:46;94824.66;;;8.24;59.92
52935;BME280;38802;50.198;19.796;2023-03-26T19:07:20;94825.41;;;8.24;60.02
52935;BME280;38802;50.198;19.796;2023-03-26T19:09:52;94823.68;;;8.22;60.01
52935;BME280;38802;50.198;19.796;2023-03-26T19:12:29;94822.98;;;8.24;59.98
52935;BME280;38802;50.198;19.796;2023-03-26T19:15:12;94824.02;;;8.24;60.00
52935;BME280;38802;50.198;19.796;2023-03-26T19:17:44;94825.92;;;8.24;60.13
52935;BME280;38802;50.198;19.796;2023-03-26T19:20:25;94818.98;;;8.20;60.10
52935;BME280;38802;50.198;19.796;2023-03-26T19:22:56;94818.98;;;8.13;60.06
52935;BME280;38802;50.198;19.796;2023-03-26T19:25:28;94820.08;;;8.07;60.31